Current Conditions
Clear
Conditions



Pressure
1016.92 (hPa) - 30.03 (inHG)
Visibility

10.0 (km) - 6.2 (miles)
   Temperature
25  °C
77°F
14  °C
Dewpoint
51  %
 Humidity
   Wind Speed
7  kts
8  mph
13  km/h
3.6  m/s
   Wind Direction
 60°
East North
East
   Airport Data
LKTB
Location Brno-Tuřany Airport 61 km (37.91 mi)
Metar :LKTB 121900Z 06007KT CAVOK 25/14 Q1017 NOSIG
Wed 12th August 20:00 pm
   Raw Metar Info
Raw METAR is the most common format in the world for the transmission of observational weather data. It is highly standardized through the International Civil Aviation Organization (ICAO), which allows it to be understood throughout most of the world.
   API Info
Data Provided by
https://www.checkwx.com/weather/LKTB
   © Info
CSS/SVG/PHP scripts were developed by weather34.com for use in the weather34 template © 2015-2020

Guide Info provided by Metar-Wikipedia